sensor_id;sensor_type;location;lat;lon;timestamp;temperature;humidity
23116;DHT22;11727;52.134;5.052;2022-09-03T00:00:08;18.70;99.90
23116;DHT22;11727;52.134;5.052;2022-09-03T00:02:43;18.70;99.90
23116;DHT22;11727;52.134;5.052;2022-09-03T00:08:30;18.60;99.90
23116;DHT22;11727;52.134;5.052;2022-09-03T00:11:02;18.60;99.90
23116;DHT22;11727;52.134;5.052;2022-09-03T00:13:37;18.60;99.90
23116;DHT22;11727;52.134;5.052;2022-09-03T00:16:08;18.50;99.90
23116;DHT22;11727;52.134;5.052;2022-09-03T00:18:42;18.50;99.90
23116;DHT22;11727;52.134;5.052;2022-09-03T00:21:16;18.50;99.90
23116;DHT22;11727;52.134;5.052;2022-09-03T00:23:45;18.50;99.90
23116;DHT22;11727;52.134;5.052;2022-09-03T00:28:41;18.40;99.90
23116;DHT22;11727;52.134;5.052;2022-09-03T00:31:10;18.30;99.90
23116;DHT22;11727;52.134;5.052;2022-09-03T00:33:39;18.40;99.90
23116;DHT22;11727;52.134;5.052;2022-09-03T00:36:42;18.30;99.90
23116;DHT22;11727;52.134;5.052;2022-09-03T00:39:14;18.30;99.90
23116;DHT22;11727;52.134;5.052;2022-09-03T00:45:02;18.20;99.90
23116;DHT22;11727;52.134;5.052;2022-09-03T00:53:24;18.10;99.90
23116;DHT22;11727;52.134;5.052;2022-09-03T00:56:03;18.00;99.90
23116;DHT22;11727;52.134;5.052;2022-09-03T00:58:46;18.00;99.90
23116;DHT22;11727;52.134;5.052;2022-09-03T01:01:27;18.00;99.90
23116;DHT22;11727;52.134;5.052;2022-09-03T01:06:57;17.90;99.90
23116;DHT22;11727;52.134;5.052;2022-09-03T01:17:35;17.90;99.90
23116;DHT22;11727;52.134;5.052;2022-09-03T01:20:15;17.90;99.90
23116;DHT22;11727;52.134;5.052;2022-09-03T01:35:00;18.00;99.90
23116;DHT22;11727;52.134;5.052;2022-09-03T01:40:20;18.00;99.90
23116;DHT22;11727;52.134;5.052;2022-09-03T01:48:09;18.00;99.90
23116;DHT22;11727;52.134;5.052;2022-09-03T01:53:37;18.10;99.90
23116;DHT22;11727;52.134;5.052;2022-09-03T01:56:35;18.10;99.90
23116;DHT22;11727;52.134;5.052;2022-09-03T01:59:10;18.10;99.90
23116;DHT22;11727;52.134;5.052;2022-09-03T02:02:07;18.10;99.90
23116;DHT22;11727;52.134;5.052;2022-09-03T02:04:34;18.10;99.90
23116;DHT22;11727;52.134;5.052;2022-09-03T02:07:00;18.10;99.90
23116;DHT22;11727;52.134;5.052;2022-09-03T02:09:27;18.20;99.90
23116;DHT22;11727;52.134;5.052;2022-09-03T02:11:57;18.20;99.90
23116;DHT22;11727;52.134;5.052;2022-09-03T02:14:25;18.20;99.90
23116;DHT22;11727;52.134;5.052;2022-09-03T02:16:51;18.20;99.90
23116;DHT22;11727;52.134;5.052;2022-09-03T02:19:18;18.20;99.90
23116;DHT22;11727;52.134;5.052;2022-09-03T02:21:52;18.20;99.90
23116;DHT22;11727;52.134;5.052;2022-09-03T02:24:19;18.10;99.90
23116;DHT22;11727;52.134;5.052;2022-09-03T02:26:45;18.10;99.90
23116;DHT22;11727;52.134;5.052;2022-09-03T02:29:13;18.10;99.90
23116;DHT22;11727;52.134;5.052;2022-09-03T02:31:39;18.10;99.90
23116;DHT22;11727;52.134;5.052;2022-09-03T02:34:05;18.10;99.90
23116;DHT22;11727;52.134;5.052;2022-09-03T02:36:36;18.00;99.90
23116;DHT22;11727;52.134;5.052;2022-09-03T02:39:03;18.00;99.90
23116;DHT22;11727;52.134;5.052;2022-09-03T02:41:30;17.90;99.90
23116;DHT22;11727;52.134;5.052;2022-09-03T02:44:13;17.90;99.90
23116;DHT22;11727;52.134;5.052;2022-09-03T02:46:49;17.90;99.90
23116;DHT22;11727;52.134;5.052;2022-09-03T02:49:16;17.80;99.90
23116;DHT22;11727;52.134;5.052;2022-09-03T02:51:42;17.80;99.90
23116;DHT22;11727;52.134;5.052;2022-09-03T02:54:09;17.80;99.90
23116;DHT22;11727;52.134;5.052;2022-09-03T02:56:36;17.70;99.90
23116;DHT22;11727;52.134;5.052;2022-09-03T02:59:03;17.70;99.90
23116;DHT22;11727;52.134;5.052;2022-09-03T03:01:29;17.70;99.90
23116;DHT22;11727;52.134;5.052;2022-09-03T03:03:54;17.70;99.90
23116;DHT22;11727;52.134;5.052;2022-09-03T03:06:20;17.60;99.90
23116;DHT22;11727;52.134;5.052;2022-09-03T03:08:47;17.60;99.90
23116;DHT22;11727;52.134;5.052;2022-09-03T03:11:15;17.60;99.90
23116;DHT22;11727;52.134;5.052;2022-09-03T03:13:43;17.50;99.90
23116;DHT22;11727;52.134;5.052;2022-09-03T03:16:10;17.50;99.90
23116;DHT22;11727;52.134;5.052;2022-09-03T03:18:36;17.50;99.90
23116;DHT22;11727;52.134;5.052;2022-09-03T03:21:07;17.40;99.90
23116;DHT22;11727;52.134;5.052;2022-09-03T03:23:34;17.40;99.90
23116;DHT22;11727;52.134;5.052;2022-09-03T03:26:01;17.30;99.90
23116;DHT22;11727;52.134;5.052;2022-09-03T03:28:27;17.30;99.90
23116;DHT22;11727;52.134;5.052;2022-09-03T03:30:52;17.30;99.90
23116;DHT22;11727;52.134;5.052;2022-09-03T03:33:18;17.30;99.90
23116;DHT22;11727;52.134;5.052;2022-09-03T03:35:45;17.20;99.90
23116;DHT22;11727;52.134;5.052;2022-09-03T03:38:11;17.20;99.90
23116;DHT22;11727;52.134;5.052;2022-09-03T03:40:37;17.20;99.90
23116;DHT22;11727;52.134;5.052;2022-09-03T03:43:03;17.20;99.90
23116;DHT22;11727;52.134;5.052;2022-09-03T03:45:28;17.20;99.90
23116;DHT22;11727;52.134;5.052;2022-09-03T03:47:57;17.10;99.90
23116;DHT22;11727;52.134;5.052;2022-09-03T03:50:24;17.10;99.90
23116;DHT22;11727;52.134;5.052;2022-09-03T03:52:50;17.10;99.90
23116;DHT22;11727;52.134;5.052;2022-09-03T03:55:15;17.10;99.90
23116;DHT22;11727;52.134;5.052;2022-09-03T03:57:41;17.00;99.90
23116;DHT22;11727;52.134;5.052;2022-09-03T04:00:07;17.00;99.90
23116;DHT22;11727;52.134;5.052;2022-09-03T04:02:33;17.00;99.90
23116;DHT22;11727;52.134;5.052;2022-09-03T04:04:58;16.90;99.90
23116;DHT22;11727;52.134;5.052;2022-09-03T04:07:24;16.90;99.90
23116;DHT22;11727;52.134;5.052;2022-09-03T04:09:50;16.90;99.90
23116;DHT22;11727;52.134;5.052;2022-09-03T04:12:15;16.90;99.90
23116;DHT22;11727;52.134;5.052;2022-09-03T04:14:41;16.90;99.90
23116;DHT22;11727;52.134;5.052;2022-09-03T04:17:07;16.90;99.90
23116;DHT22;11727;52.134;5.052;2022-09-03T04:19:32;16.90;99.90
23116;DHT22;11727;52.134;5.052;2022-09-03T04:21:58;16.80;99.90
23116;DHT22;11727;52.134;5.052;2022-09-03T04:24:24;16.90;99.90
23116;DHT22;11727;52.134;5.052;2022-09-03T04:26:49;16.90;99.90
23116;DHT22;11727;52.134;5.052;2022-09-03T04:29:15;16.90;99.90
23116;DHT22;11727;52.134;5.052;2022-09-03T04:31:42;16.80;99.90
23116;DHT22;11727;52.134;5.052;2022-09-03T04:34:27;16.80;99.90
23116;DHT22;11727;52.134;5.052;2022-09-03T04:36:53;16.80;99.90
23116;DHT22;11727;52.134;5.052;2022-09-03T04:39:18;16.80;99.90
23116;DHT22;11727;52.134;5.052;2022-09-03T04:41:44;16.80;99.90
23116;DHT22;11727;52.134;5.052;2022-09-03T04:44:10;16.80;99.90
23116;DHT22;11727;52.134;5.052;2022-09-03T04:46:35;16.80;99.90
23116;DHT22;11727;52.134;5.052;2022-09-03T04:49:01;16.80;99.90
23116;DHT22;11727;52.134;5.052;2022-09-03T04:51:27;16.80;99.90
23116;DHT22;11727;52.134;5.052;2022-09-03T04:53:56;16.80;99.90
23116;DHT22;11727;52.134;5.052;2022-09-03T04:56:24;16.70;99.90
23116;DHT22;11727;52.134;5.052;2022-09-03T04:58:55;16.70;99.90
23116;DHT22;11727;52.134;5.052;2022-09-03T05:01:22;16.70;99.90
23116;DHT22;11727;52.134;5.052;2022-09-03T05:03:48;16.70;99.90
23116;DHT22;11727;52.134;5.052;2022-09-03T05:06:15;16.70;99.90
23116;DHT22;11727;52.134;5.052;2022-09-03T05:08:42;16.70;99.90
23116;DHT22;11727;52.134;5.052;2022-09-03T05:11:08;16.60;99.90
23116;DHT22;11727;52.134;5.052;2022-09-03T05:13:35;16.60;99.90
23116;DHT22;11727;52.134;5.052;2022-09-03T05:16:03;16.60;99.90
23116;DHT22;11727;52.134;5.052;2022-09-03T05:18:31;16.60;99.90
23116;DHT22;11727;52.134;5.052;2022-09-03T05:21:01;16.50;99.90
23116;DHT22;11727;52.134;5.052;2022-09-03T05:23:28;16.60;99.90
23116;DHT22;11727;52.134;5.052;2022-09-03T05:26:00;16.50;99.90
23116;DHT22;11727;52.134;5.052;2022-09-03T05:28:28;16.50;99.90
23116;DHT22;11727;52.134;5.052;2022-09-03T05:30:59;16.50;99.90
23116;DHT22;11727;52.134;5.052;2022-09-03T05:33:25;16.50;99.90
23116;DHT22;11727;52.134;5.052;2022-09-03T05:35:50;16.50;99.90
23116;DHT22;11727;52.134;5.052;2022-09-03T05:38:18;16.50;99.90
23116;DHT22;11727;52.134;5.052;2022-09-03T05:40:43;16.50;99.90
23116;DHT22;11727;52.134;5.052;2022-09-03T05:43:09;16.50;99.90
23116;DHT22;11727;52.134;5.052;2022-09-03T05:45:34;16.50;99.90
23116;DHT22;11727;52.134;5.052;2022-09-03T05:48:01;16.50;99.90
23116;DHT22;11727;52.134;5.052;2022-09-03T05:50:27;16.50;99.90
23116;DHT22;11727;52.134;5.052;2022-09-03T05:52:53;16.50;99.90
23116;DHT22;11727;52.134;5.052;2022-09-03T05:55:18;16.50;99.90
23116;DHT22;11727;52.134;5.052;2022-09-03T05:57:44;16.50;99.90
23116;DHT22;11727;52.134;5.052;2022-09-03T06:00:10;16.50;99.90
23116;DHT22;11727;52.134;5.052;2022-09-03T06:02:36;16.50;99.90
23116;DHT22;11727;52.134;5.052;2022-09-03T06:05:02;16.50;99.90
23116;DHT22;11727;52.134;5.052;2022-09-03T06:07:27;16.50;99.90
23116;DHT22;11727;52.134;5.052;2022-09-03T06:09:53;16.50;99.90
23116;DHT22;11727;52.134;5.052;2022-09-03T06:12:19;16.50;99.90
23116;DHT22;11727;52.134;5.052;2022-09-03T06:14:45;16.60;99.90
23116;DHT22;11727;52.134;5.052;2022-09-03T06:17:10;16.60;99.90
23116;DHT22;11727;52.134;5.052;2022-09-03T06:19:37;16.60;99.90
23116;DHT22;11727;52.134;5.052;2022-09-03T06:22:03;16.70;99.90
23116;DHT22;11727;52.134;5.052;2022-09-03T06:24:28;16.70;99.90
23116;DHT22;11727;52.134;5.052;2022-09-03T06:26:57;16.80;99.90
23116;DHT22;11727;52.134;5.052;2022-09-03T06:29:22;16.80;99.90
23116;DHT22;11727;52.134;5.052;2022-09-03T06:31:48;16.90;99.90
23116;DHT22;11727;52.134;5.052;2022-09-03T06:34:15;17.00;99.90
23116;DHT22;11727;52.134;5.052;2022-09-03T06:36:44;17.00;99.90
23116;DHT22;11727;52.134;5.052;2022-09-03T06:39:10;17.10;99.90
23116;DHT22;11727;52.134;5.052;2022-09-03T06:41:36;17.20;99.90
23116;DHT22;11727;52.134;5.052;2022-09-03T06:44:04;17.30;99.90
23116;DHT22;11727;52.134;5.052;2022-09-03T06:46:34;17.40;99.90
23116;DHT22;11727;52.134;5.052;2022-09-03T06:49:00;17.60;99.90
23116;DHT22;11727;52.134;5.052;2022-09-03T06:51:28;17.70;99.90
23116;DHT22;11727;52.134;5.052;2022-09-03T06:53:59;17.80;99.90
23116;DHT22;11727;52.134;5.052;2022-09-03T06:56:25;18.00;99.90
23116;DHT22;11727;52.134;5.052;2022-09-03T06:58:53;18.20;99.90
23116;DHT22;11727;52.134;5.052;2022-09-03T07:01:21;18.30;99.90
23116;DHT22;11727;52.134;5.052;2022-09-03T07:03:52;18.40;99.90
23116;DHT22;11727;52.134;5.052;2022-09-03T07:06:20;18.60;99.90
23116;DHT22;11727;52.134;5.052;2022-09-03T07:08:46;18.70;99.90
23116;DHT22;11727;52.134;5.052;2022-09-03T07:11:14;18.80;99.90
23116;DHT22;11727;52.134;5.052;2022-09-03T07:13:42;19.00;99.90
23116;DHT22;11727;52.134;5.052;2022-09-03T07:16:13;19.10;99.90
23116;DHT22;11727;52.134;5.052;2022-09-03T07:18:40;19.30;99.90
23116;DHT22;11727;52.134;5.052;2022-09-03T07:21:07;19.40;99.90
23116;DHT22;11727;52.134;5.052;2022-09-03T07:23:35;19.60;99.90
23116;DHT22;11727;52.134;5.052;2022-09-03T07:26:04;19.70;99.90
23116;DHT22;11727;52.134;5.052;2022-09-03T07:28:30;19.80;99.90
23116;DHT22;11727;52.134;5.052;2022-09-03T07:31:10;20.00;99.90
23116;DHT22;11727;52.134;5.052;2022-09-03T07:33:39;20.10;99.90
23116;DHT22;11727;52.134;5.052;2022-09-03T07:36:08;20.30;99.90
23116;DHT22;11727;52.134;5.052;2022-09-03T07:38:34;20.40;99.90
23116;DHT22;11727;52.134;5.052;2022-09-03T07:41:06;20.50;99.90
23116;DHT22;11727;52.134;5.052;2022-09-03T07:43:42;20.70;99.90
23116;DHT22;11727;52.134;5.052;2022-09-03T07:46:10;20.90;99.90
23116;DHT22;11727;52.134;5.052;2022-09-03T07:48:41;21.10;99.90
23116;DHT22;11727;52.134;5.052;2022-09-03T07:51:08;21.20;99.90
23116;DHT22;11727;52.134;5.052;2022-09-03T07:53:34;21.30;99.90
23116;DHT22;11727;52.134;5.052;2022-09-03T07:56:04;21.40;99.90
23116;DHT22;11727;52.134;5.052;2022-09-03T07:58:31;21.60;99.90
23116;DHT22;11727;52.134;5.052;2022-09-03T08:00:58;21.70;99.90
23116;DHT22;11727;52.134;5.052;2022-09-03T08:03:24;21.90;99.90
23116;DHT22;11727;52.134;5.052;2022-09-03T08:05:49;22.00;99.90
23116;DHT22;11727;52.134;5.052;2022-09-03T08:08:15;22.10;99.90
23116;DHT22;11727;52.134;5.052;2022-09-03T08:10:42;22.30;99.90
23116;DHT22;11727;52.134;5.052;2022-09-03T08:13:07;22.40;99.90
23116;DHT22;11727;52.134;5.052;2022-09-03T08:15:35;22.50;99.90
23116;DHT22;11727;52.134;5.052;2022-09-03T08:18:02;22.60;99.90
23116;DHT22;11727;52.134;5.052;2022-09-03T08:20:28;22.70;99.90
23116;DHT22;11727;52.134;5.052;2022-09-03T08:23:02;22.90;99.90
23116;DHT22;11727;52.134;5.052;2022-09-03T08:25:28;23.00;99.90
23116;DHT22;11727;52.134;5.052;2022-09-03T08:27:57;23.20;99.90
23116;DHT22;11727;52.134;5.052;2022-09-03T08:30:23;23.20;99.90
23116;DHT22;11727;52.134;5.052;2022-09-03T08:32:49;23.40;99.90
23116;DHT22;11727;52.134;5.052;2022-09-03T08:35:15;23.50;99.90
23116;DHT22;11727;52.134;5.052;2022-09-03T08:37:40;23.60;99.90
23116;DHT22;11727;52.134;5.052;2022-09-03T08:40:07;23.70;99.90
23116;DHT22;11727;52.134;5.052;2022-09-03T08:43:02;23.90;99.90
23116;DHT22;11727;52.134;5.052;2022-09-03T08:45:33;24.00;99.90
23116;DHT22;11727;52.134;5.052;2022-09-03T08:48:09;24.20;99.90
23116;DHT22;11727;52.134;5.052;2022-09-03T08:50:44;24.40;99.90
23116;DHT22;11727;52.134;5.052;2022-09-03T08:56:01;24.60;99.90
23116;DHT22;11727;52.134;5.052;2022-09-03T08:58:31;24.70;99.90
23116;DHT22;11727;52.134;5.052;2022-09-03T09:03:58;24.80;99.90
23116;DHT22;11727;52.134;5.052;2022-09-03T09:09:24;25.10;99.90
23116;DHT22;11727;52.134;5.052;2022-09-03T09:12:20;25.20;99.90
23116;DHT22;11727;52.134;5.052;2022-09-03T09:23:12;25.40;99.90
23116;DHT22;11727;52.134;5.052;2022-09-03T09:25:49;25.40;99.90
23116;DHT22;11727;52.134;5.052;2022-09-03T09:28:23;25.50;99.90
23116;DHT22;11727;52.134;5.052;2022-09-03T09:30:52;25.40;99.90
23116;DHT22;11727;52.134;5.052;2022-09-03T09:33:19;25.40;99.90
23116;DHT22;11727;52.134;5.052;2022-09-03T09:35:45;25.40;99.90
23116;DHT22;11727;52.134;5.052;2022-09-03T09:38:12;25.40;99.90
23116;DHT22;11727;52.134;5.052;2022-09-03T09:40:41;25.50;99.90
23116;DHT22;11727;52.134;5.052;2022-09-03T09:45:37;25.70;99.90
23116;DHT22;11727;52.134;5.052;2022-09-03T09:48:29;25.80;99.90
23116;DHT22;11727;52.134;5.052;2022-09-03T09:51:10;26.00;99.90
23116;DHT22;11727;52.134;5.052;2022-09-03T09:53:35;26.10;99.90
23116;DHT22;11727;52.134;5.052;2022-09-03T09:56:01;26.20;99.90
23116;DHT22;11727;52.134;5.052;2022-09-03T09:58:29;26.20;99.90
23116;DHT22;11727;52.134;5.052;2022-09-03T10:00:57;26.20;99.90
23116;DHT22;11727;52.134;5.052;2022-09-03T10:03:23;26.30;99.90
23116;DHT22;11727;52.134;5.052;2022-09-03T10:06:08;26.30;99.90
23116;DHT22;11727;52.134;5.052;2022-09-03T10:09:11;26.20;99.90
23116;DHT22;11727;52.134;5.052;2022-09-03T10:11:41;26.40;99.90
23116;DHT22;11727;52.134;5.052;2022-09-03T10:14:16;26.40;99.90
23116;DHT22;11727;52.134;5.052;2022-09-03T10:16:47;26.50;99.90
23116;DHT22;11727;52.134;5.052;2022-09-03T10:19:22;26.70;99.90
23116;DHT22;11727;52.134;5.052;2022-09-03T10:22:08;26.70;99.90
23116;DHT22;11727;52.134;5.052;2022-09-03T10:24:55;26.80;99.90
23116;DHT22;11727;52.134;5.052;2022-09-03T10:27:22;26.80;99.90
23116;DHT22;11727;52.134;5.052;2022-09-03T10:29:48;26.80;99.90
23116;DHT22;11727;52.134;5.052;2022-09-03T10:32:40;26.80;99.90
23116;DHT22;11727;52.134;5.052;2022-09-03T10:35:15;27.00;99.90
23116;DHT22;11727;52.134;5.052;2022-09-03T10:37:46;27.00;99.90
23116;DHT22;11727;52.134;5.052;2022-09-03T10:40:43;27.00;99.90
23116;DHT22;11727;52.134;5.052;2022-09-03T10:46:16;27.30;99.90
23116;DHT22;11727;52.134;5.052;2022-09-03T10:57:02;27.40;99.90
23116;DHT22;11727;52.134;5.052;2022-09-03T11:05:26;27.70;99.90
23116;DHT22;11727;52.134;5.052;2022-09-03T11:10:51;27.70;99.90
23116;DHT22;11727;52.134;5.052;2022-09-03T11:13:27;27.70;99.90
23116;DHT22;11727;52.134;5.052;2022-09-03T11:16:19;27.70;99.90
23116;DHT22;11727;52.134;5.052;2022-09-03T11:18:56;27.80;99.90
23116;DHT22;11727;52.134;5.052;2022-09-03T11:21:27;27.80;99.90
23116;DHT22;11727;52.134;5.052;2022-09-03T11:24:14;27.80;99.90
23116;DHT22;11727;52.134;5.052;2022-09-03T11:26:44;27.80;99.90
23116;DHT22;11727;52.134;5.052;2022-09-03T11:29:19;27.80;99.90
23116;DHT22;11727;52.134;5.052;2022-09-03T11:34:31;27.90;99.90
23116;DHT22;11727;52.134;5.052;2022-09-03T11:39:43;27.90;99.90
23116;DHT22;11727;52.134;5.052;2022-09-03T11:42:11;28.00;99.90
23116;DHT22;11727;52.134;5.052;2022-09-03T11:44:38;28.00;99.90
23116;DHT22;11727;52.134;5.052;2022-09-03T11:47:35;28.20;99.90
23116;DHT22;11727;52.134;5.052;2022-09-03T11:50:14;28.30;99.90
23116;DHT22;11727;52.134;5.052;2022-09-03T11:52:41;28.30;99.90
23116;DHT22;11727;52.134;5.052;2022-09-03T11:55:07;28.30;99.90
23116;DHT22;11727;52.134;5.052;2022-09-03T11:57:40;28.40;99.90
23116;DHT22;11727;52.134;5.052;2022-09-03T12:00:14;28.50;99.90
23116;DHT22;11727;52.134;5.052;2022-09-03T12:03:02;28.60;99.90
23116;DHT22;11727;52.134;5.052;2022-09-03T12:05:48;28.70;99.90
23116;DHT22;11727;52.134;5.052;2022-09-03T12:14:07;28.80;99.90
23116;DHT22;11727;52.134;5.052;2022-09-03T12:19:52;28.90;99.90
23116;DHT22;11727;52.134;5.052;2022-09-03T12:22:20;28.90;99.90
23116;DHT22;11727;52.134;5.052;2022-09-03T12:24:48;28.80;99.90
23116;DHT22;11727;52.134;5.052;2022-09-03T12:27:25;28.80;99.90
23116;DHT22;11727;52.134;5.052;2022-09-03T12:29:57;28.80;99.90
23116;DHT22;11727;52.134;5.052;2022-09-03T12:32:25;28.80;99.90
23116;DHT22;11727;52.134;5.052;2022-09-03T12:34:52;28.90;99.90
23116;DHT22;11727;52.134;5.052;2022-09-03T12:37:23;28.80;99.90
23116;DHT22;11727;52.134;5.052;2022-09-03T12:39:54;28.80;99.90
23116;DHT22;11727;52.134;5.052;2022-09-03T12:42:25;28.90;99.90
23116;DHT22;11727;52.134;5.052;2022-09-03T12:44:51;28.90;99.90
23116;DHT22;11727;52.134;5.052;2022-09-03T12:47:19;29.00;99.90
23116;DHT22;11727;52.134;5.052;2022-09-03T12:49:48;29.10;99.90
23116;DHT22;11727;52.134;5.052;2022-09-03T12:52:34;29.10;99.90
23116;DHT22;11727;52.134;5.052;2022-09-03T13:01:06;29.10;99.90
23116;DHT22;11727;52.134;5.052;2022-09-03T13:06:29;29.20;99.90
23116;DHT22;11727;52.134;5.052;2022-09-03T13:09:03;29.20;99.90
23116;DHT22;11727;52.134;5.052;2022-09-03T13:11:35;29.20;99.90
23116;DHT22;11727;52.134;5.052;2022-09-03T13:14:10;29.20;99.90
23116;DHT22;11727;52.134;5.052;2022-09-03T13:19:49;29.20;99.90
23116;DHT22;11727;52.134;5.052;2022-09-03T13:33:31;29.20;99.90
23116;DHT22;11727;52.134;5.052;2022-09-03T13:36:07;29.20;99.90
23116;DHT22;11727;52.134;5.052;2022-09-03T13:46:45;29.30;99.90
23116;DHT22;11727;52.134;5.052;2022-09-03T13:49:50;29.30;99.90
23116;DHT22;11727;52.134;5.052;2022-09-03T13:52:44;29.20;99.90
23116;DHT22;11727;52.134;5.052;2022-09-03T14:06:38;29.30;99.90
23116;DHT22;11727;52.134;5.052;2022-09-03T14:09:10;29.30;99.90
23116;DHT22;11727;52.134;5.052;2022-09-03T14:20:03;29.10;99.90
23116;DHT22;11727;52.134;5.052;2022-09-03T14:22:46;29.10;99.90
23116;DHT22;11727;52.134;5.052;2022-09-03T14:25:19;29.00;99.90
23116;DHT22;11727;52.134;5.052;2022-09-03T14:27:44;29.10;99.90
23116;DHT22;11727;52.134;5.052;2022-09-03T14:30:38;29.10;99.90
23116;DHT22;11727;52.134;5.052;2022-09-03T14:33:16;29.10;99.90
23116;DHT22;11727;52.134;5.052;2022-09-03T14:46:58;29.20;99.90
23116;DHT22;11727;52.134;5.052;2022-09-03T14:52:34;29.30;99.90
23116;DHT22;11727;52.134;5.052;2022-09-03T15:01:12;29.30;99.90
23116;DHT22;11727;52.134;5.052;2022-09-03T15:04:13;29.20;99.90
23116;DHT22;11727;52.134;5.052;2022-09-03T15:10:07;29.10;99.90
23116;DHT22;11727;52.134;5.052;2022-09-03T15:12:39;29.10;99.90
23116;DHT22;11727;52.134;5.052;2022-09-03T15:21:02;29.10;99.90
23116;DHT22;11727;52.134;5.052;2022-09-03T15:35:01;28.80;99.90
23116;DHT22;11727;52.134;5.052;2022-09-03T15:37:43;28.80;99.90
23116;DHT22;11727;52.134;5.052;2022-09-03T15:40:49;28.80;99.90
23116;DHT22;11727;52.134;5.052;2022-09-03T15:43:25;28.80;99.90
23116;DHT22;11727;52.134;5.052;2022-09-03T15:49:15;28.90;99.90
23116;DHT22;11727;52.134;5.052;2022-09-03T15:54:50;28.80;99.90
23116;DHT22;11727;52.134;5.052;2022-09-03T15:57:23;28.90;99.90
23116;DHT22;11727;52.134;5.052;2022-09-03T16:02:48;28.80;99.90
23116;DHT22;11727;52.134;5.052;2022-09-03T16:05:22;28.80;99.90
23116;DHT22;11727;52.134;5.052;2022-09-03T16:08:09;28.80;99.90
23116;DHT22;11727;52.134;5.052;2022-09-03T16:10:45;28.80;99.90
23116;DHT22;11727;52.134;5.052;2022-09-03T16:13:46;28.90;99.90
23116;DHT22;11727;52.134;5.052;2022-09-03T16:19:27;28.70;99.90
23116;DHT22;11727;52.134;5.052;2022-09-03T16:22:02;28.60;99.90
23116;DHT22;11727;52.134;5.052;2022-09-03T16:27:16;28.60;99.90
23116;DHT22;11727;52.134;5.052;2022-09-03T16:29:57;28.60;99.90
23116;DHT22;11727;52.134;5.052;2022-09-03T16:38:26;28.60;99.90
23116;DHT22;11727;52.134;5.052;2022-09-03T16:41:09;28.50;99.90
23116;DHT22;11727;52.134;5.052;2022-09-03T16:43:44;28.50;99.90
23116;DHT22;11727;52.134;5.052;2022-09-03T16:46:23;28.30;99.90
23116;DHT22;11727;52.134;5.052;2022-09-03T16:51:56;28.20;99.90
23116;DHT22;11727;52.134;5.052;2022-09-03T17:00:03;28.10;99.90
23116;DHT22;11727;52.134;5.052;2022-09-03T17:09:11;27.90;99.90
23116;DHT22;11727;52.134;5.052;2022-09-03T17:14:46;27.70;99.90
23116;DHT22;11727;52.134;5.052;2022-09-03T17:20:44;27.60;99.90
23116;DHT22;11727;52.134;5.052;2022-09-03T17:23:46;27.50;99.90
23116;DHT22;11727;52.134;5.052;2022-09-03T17:29:06;27.20;99.90
23116;DHT22;11727;52.134;5.052;2022-09-03T17:34:44;27.10;99.90
23116;DHT22;11727;52.134;5.052;2022-09-03T17:37:30;27.10;99.90
23116;DHT22;11727;52.134;5.052;2022-09-03T17:45:45;26.80;99.90
23116;DHT22;11727;52.134;5.052;2022-09-03T17:54:11;26.50;99.90
23116;DHT22;11727;52.134;5.052;2022-09-03T17:57:01;26.40;99.90
23116;DHT22;11727;52.134;5.052;2022-09-03T18:02:23;26.30;99.90
23116;DHT22;11727;52.134;5.052;2022-09-03T18:05:21;26.20;99.90
23116;DHT22;11727;52.134;5.052;2022-09-03T18:11:21;26.00;99.90
23116;DHT22;11727;52.134;5.052;2022-09-03T18:14:10;25.90;99.90
23116;DHT22;11727;52.134;5.052;2022-09-03T18:16:51;25.80;99.90
23116;DHT22;11727;52.134;5.052;2022-09-03T18:19:32;25.70;99.90
23116;DHT22;11727;52.134;5.052;2022-09-03T18:22:17;25.60;99.90
23116;DHT22;11727;52.134;5.052;2022-09-03T18:25:04;25.50;99.90
23116;DHT22;11727;52.134;5.052;2022-09-03T18:27:53;25.30;99.90
23116;DHT22;11727;52.134;5.052;2022-09-03T18:30:39;25.20;99.90
23116;DHT22;11727;52.134;5.052;2022-09-03T18:33:24;25.10;99.90
23116;DHT22;11727;52.134;5.052;2022-09-03T18:36:11;25.10;99.90
23116;DHT22;11727;52.134;5.052;2022-09-03T18:39:25;24.90;99.90
23116;DHT22;11727;52.134;5.052;2022-09-03T18:49:08;24.60;99.90
23116;DHT22;11727;52.134;5.052;2022-09-03T18:52:16;24.40;99.90
23116;DHT22;11727;52.134;5.052;2022-09-03T18:55:28;24.40;99.90
23116;DHT22;11727;52.134;5.052;2022-09-03T18:58:29;24.20;99.90
23116;DHT22;11727;52.134;5.052;2022-09-03T19:01:37;24.10;99.90
23116;DHT22;11727;52.134;5.052;2022-09-03T19:04:36;24.00;99.90
23116;DHT22;11727;52.134;5.052;2022-09-03T19:07:33;23.90;99.90
23116;DHT22;11727;52.134;5.052;2022-09-03T19:13:34;23.60;99.90
23116;DHT22;11727;52.134;5.052;2022-09-03T19:16:42;23.60;99.90
23116;DHT22;11727;52.134;5.052;2022-09-03T19:22:39;23.40;99.90
23116;DHT22;11727;52.134;5.052;2022-09-03T19:25:26;23.40;99.90
23116;DHT22;11727;52.134;5.052;2022-09-03T19:28:17;23.20;99.90
23116;DHT22;11727;52.134;5.052;2022-09-03T19:31:40;23.20;99.90
23116;DHT22;11727;52.134;5.052;2022-09-03T19:46:49;22.70;99.90
23116;DHT22;11727;52.134;5.052;2022-09-03T19:52:52;22.50;99.90
23116;DHT22;11727;52.134;5.052;2022-09-03T19:55:40;22.50;99.90
23116;DHT22;11727;52.134;5.052;2022-09-03T19:58:29;22.30;99.90
23116;DHT22;11727;52.134;5.052;2022-09-03T20:01:14;22.20;99.90
23116;DHT22;11727;52.134;5.052;2022-09-03T20:04:05;22.20;99.90
23116;DHT22;11727;52.134;5.052;2022-09-03T20:06:53;22.10;99.90
23116;DHT22;11727;52.134;5.052;2022-09-03T20:09:41;22.10;99.90
23116;DHT22;11727;52.134;5.052;2022-09-03T20:12:29;22.00;99.90
23116;DHT22;11727;52.134;5.052;2022-09-03T20:14:57;21.90;99.90
23116;DHT22;11727;52.134;5.052;2022-09-03T20:20:14;21.80;99.90
23116;DHT22;11727;52.134;5.052;2022-09-03T20:22:51;21.70;99.90
23116;DHT22;11727;52.134;5.052;2022-09-03T20:25:30;21.60;99.90
23116;DHT22;11727;52.134;5.052;2022-09-03T20:28:15;21.60;99.90
23116;DHT22;11727;52.134;5.052;2022-09-03T20:30:57;21.50;99.90
23116;DHT22;11727;52.134;5.052;2022-09-03T20:36:20;21.40;99.90
23116;DHT22;11727;52.134;5.052;2022-09-03T20:39:28;21.40;99.90
23116;DHT22;11727;52.134;5.052;2022-09-03T20:55:54;21.30;99.90
23116;DHT22;11727;52.134;5.052;2022-09-03T21:01:08;21.30;99.90
23116;DHT22;11727;52.134;5.052;2022-09-03T21:03:46;21.20;99.90
23116;DHT22;11727;52.134;5.052;2022-09-03T21:06:37;21.20;99.90
23116;DHT22;11727;52.134;5.052;2022-09-03T21:12:35;21.10;99.90
23116;DHT22;11727;52.134;5.052;2022-09-03T21:18:16;21.00;99.90
23116;DHT22;11727;52.134;5.052;2022-09-03T21:20:49;20.90;99.90
23116;DHT22;11727;52.134;5.052;2022-09-03T21:23:20;20.80;99.90
23116;DHT22;11727;52.134;5.052;2022-09-03T21:26:00;20.80;99.90
23116;DHT22;11727;52.134;5.052;2022-09-03T21:28:42;20.80;99.90